createdAt,value
2018-07-19T00:00:12.807Z,2.13
2018-07-19T00:02:42.278Z,2.30
2018-07-19T00:05:11.800Z,2.30
2018-07-19T00:07:41.188Z,2.97
2018-07-19T00:10:10.569Z,2.60
2018-07-19T00:12:40.488Z,2.50
2018-07-19T00:15:10.294Z,1.90
2018-07-19T00:17:40.232Z,1.93
2018-07-19T00:20:10.774Z,2.10
2018-07-19T00:22:40.416Z,1.80
2018-07-19T00:25:09.984Z,2.30
2018-07-19T00:27:40.424Z,2.23
2018-07-19T00:30:10.325Z,2.10
2018-07-19T00:32:40.249Z,2.33
2018-07-19T00:35:10.025Z,2.77
2018-07-19T00:37:40.569Z,2.37
2018-07-19T00:40:10.466Z,1.30
2018-07-19T00:42:40.288Z,1.90
2018-07-19T00:45:10.041Z,1.83
2018-07-19T00:47:39.877Z,2.40
2018-07-19T00:50:09.948Z,2.57
2018-07-19T00:52:39.602Z,2.17
2018-07-19T00:55:09.371Z,2.17
2018-07-19T00:57:39.467Z,2.40
2018-07-19T01:00:09.441Z,2.07
2018-07-19T01:02:39.025Z,2.10
2018-07-19T01:05:10.373Z,1.50
2018-07-19T01:07:40.214Z,2.00
2018-07-19T01:10:09.938Z,3.67
2018-07-19T01:12:40.085Z,2.17
2018-07-19T01:15:09.857Z,2.17
2018-07-19T01:17:39.485Z,1.80
2018-07-19T01:20:11.100Z,2.40
2018-07-19T01:22:41.130Z,2.40
2018-07-19T01:25:10.916Z,2.77
2018-07-19T01:27:41.786Z,2.30
2018-07-19T01:30:11.377Z,2.77
2018-07-19T01:32:40.995Z,2.40
2018-07-19T01:35:10.797Z,2.93
2018-07-19T01:37:40.421Z,2.63
2018-07-19T01:40:10.107Z,3.30
2018-07-19T01:42:41.967Z,2.70
2018-07-19T01:45:12.308Z,2.47
2018-07-19T01:47:42.543Z,3.60
2018-07-19T01:50:12.533Z,3.27
2018-07-19T01:52:42.880Z,3.30
2018-07-19T01:55:12.618Z,3.50
2018-07-19T01:57:41.983Z,3.17
2018-07-19T02:00:12.714Z,3.70
2018-07-19T02:02:42.576Z,3.00
2018-07-19T02:05:12.118Z,2.93
2018-07-19T02:07:41.576Z,2.80
2018-07-19T02:10:11.540Z,3.40
2018-07-19T02:12:41.556Z,3.40
2018-07-19T02:15:11.164Z,3.70
2018-07-19T02:17:40.669Z,3.43
2018-07-19T02:20:10.380Z,3.20
2018-07-19T02:22:39.980Z,3.50
2018-07-19T02:25:09.741Z,3.40
2018-07-19T02:27:39.518Z,4.00
2018-07-19T02:30:09.868Z,3.90
2018-07-19T02:32:39.805Z,3.33
2018-07-19T02:35:10.518Z,3.50
2018-07-19T02:37:40.303Z,3.67
2018-07-19T02:40:10.114Z,4.07
2018-07-19T02:42:39.749Z,5.27
2018-07-19T02:45:09.384Z,3.80
2018-07-19T02:47:39.160Z,3.00
2018-07-19T02:50:08.976Z,3.70
2018-07-19T02:52:38.965Z,4.10
2018-07-19T02:55:08.580Z,4.37
2018-07-19T02:57:38.209Z,4.33
2018-07-19T03:00:07.711Z,3.47
2018-07-19T03:02:37.340Z,3.90
2018-07-19T03:05:07.363Z,4.00
2018-07-19T03:07:38.436Z,4.43
2018-07-19T03:10:08.364Z,4.10
2018-07-19T03:12:38.014Z,4.50
2018-07-19T03:15:08.703Z,3.87
2018-07-19T03:17:38.311Z,4.97
2018-07-19T03:20:07.958Z,4.43
2018-07-19T03:22:38.174Z,4.43
2018-07-19T03:25:08.272Z,4.73
2018-07-19T03:27:37.930Z,5.27
2018-07-19T03:30:07.924Z,5.40
2018-07-19T03:32:37.788Z,5.70
2018-07-19T03:35:07.543Z,5.70
2018-07-19T03:37:37.513Z,5.30
2018-07-19T03:40:07.337Z,4.50
2018-07-19T03:42:37.003Z,5.77
2018-07-19T03:45:06.766Z,5.63
2018-07-19T03:47:36.579Z,5.50
2018-07-19T03:50:06.387Z,5.60
2018-07-19T03:52:36.456Z,5.40
2018-07-19T03:55:06.407Z,5.73
2018-07-19T03:57:36.499Z,6.53
2018-07-19T04:00:07.084Z,5.30
2018-07-19T04:02:38.246Z,5.30
2018-07-19T04:05:08.366Z,6.43
2018-07-19T04:07:38.570Z,5.97
2018-07-19T04:10:08.937Z,6.40
2018-07-19T04:12:40.537Z,6.20
2018-07-19T04:15:10.554Z,6.57
2018-07-19T04:17:45.446Z,5.90
2018-07-19T04:20:16.172Z,6.30
2018-07-19T04:22:45.759Z,5.97
2018-07-19T04:25:15.248Z,6.73
2018-07-19T04:27:44.754Z,5.43
2018-07-19T04:30:15.488Z,6.17
2018-07-19T04:32:50.871Z,5.93
2018-07-19T04:35:20.734Z,5.50
2018-07-19T04:37:50.450Z,6.60
2018-07-19T04:40:19.824Z,6.60
2018-07-19T04:42:49.846Z,5.57
2018-07-19T04:45:19.208Z,5.67
2018-07-19T04:47:48.543Z,6.57
2018-07-19T04:50:18.021Z,5.33
2018-07-19T04:52:47.250Z,6.43
2018-07-19T04:55:16.594Z,6.37
2018-07-19T04:57:45.908Z,6.63
2018-07-19T05:00:16.475Z,6.27
2018-07-19T05:02:46.134Z,6.63
2018-07-19T05:05:15.606Z,6.80
2018-07-19T05:07:45.206Z,6.30
2018-07-19T05:10:15.214Z,7.40
2018-07-19T05:12:44.799Z,6.43
2018-07-19T05:15:14.386Z,7.97
2018-07-19T05:17:44.329Z,8.17
2018-07-19T05:20:13.902Z,6.80
2018-07-19T05:22:43.432Z,7.70
2018-07-19T05:25:13.412Z,8.97
2018-07-19T05:27:43.337Z,7.80
2018-07-19T05:30:13.095Z,7.80
2018-07-19T05:32:44.221Z,7.50
2018-07-19T05:35:14.456Z,8.13
2018-07-19T05:37:44.269Z,6.77
2018-07-19T05:40:13.856Z,6.50
2018-07-19T05:42:44.476Z,6.20
2018-07-19T05:45:14.086Z,5.80
2018-07-19T05:47:46.763Z,7.03
2018-07-19T05:50:16.563Z,6.00
2018-07-19T05:52:46.744Z,6.20
2018-07-19T05:55:16.545Z,5.93
2018-07-19T05:57:46.432Z,6.67
2018-07-19T06:00:17.035Z,6.47
2018-07-19T06:02:46.909Z,6.67
2018-07-19T06:05:18.351Z,6.63
2018-07-19T06:07:51.309Z,5.40
2018-07-19T06:10:20.705Z,5.80
2018-07-19T06:12:50.036Z,5.40
2018-07-19T06:15:19.411Z,5.10
2018-07-19T06:17:48.788Z,5.43
2018-07-19T06:20:18.189Z,5.23
2018-07-19T06:22:47.728Z,4.63
2018-07-19T06:25:17.322Z,4.30
2018-07-19T06:27:46.727Z,4.00
2018-07-19T06:30:16.234Z,3.33
2018-07-19T06:32:45.778Z,3.37
2018-07-19T06:35:15.512Z,3.40
2018-07-19T06:37:45.393Z,3.40
2018-07-19T06:40:15.888Z,3.50
2018-07-19T06:42:45.479Z,3.83
2018-07-19T06:45:15.001Z,3.50
2018-07-19T06:47:44.834Z,3.03
2018-07-19T06:50:14.619Z,3.30
2018-07-19T06:52:44.230Z,3.70
2018-07-19T06:55:14.470Z,3.20
2018-07-19T06:57:44.607Z,3.00
2018-07-19T07:00:14.494Z,3.00
2018-07-19T07:02:45.628Z,3.00
2018-07-19T07:05:16.861Z,2.87
2018-07-19T07:07:47.272Z,3.30
2018-07-19T07:10:17.868Z,3.40
2018-07-19T07:12:47.800Z,3.43
2018-07-19T07:15:17.582Z,3.00
2018-07-19T07:17:46.864Z,3.83
2018-07-19T07:20:16.147Z,3.80
2018-07-19T07:22:45.780Z,3.20
2018-07-19T07:25:15.285Z,4.40
2018-07-19T07:27:45.260Z,3.97
2018-07-19T07:30:15.048Z,4.10
2018-07-19T07:32:45.753Z,3.67
2018-07-19T07:35:16.505Z,3.53
2018-07-19T07:37:46.943Z,4.47
2018-07-19T07:40:16.465Z,3.63
2018-07-19T07:42:48.053Z,4.70
2018-07-19T07:45:17.627Z,3.30
2018-07-19T07:47:47.283Z,4.17
2018-07-19T07:50:17.038Z,4.50
2018-07-19T07:52:46.719Z,4.03
2018-07-19T07:55:19.802Z,5.80
2018-07-19T07:57:50.203Z,4.53
2018-07-19T08:00:19.761Z,3.97
2018-07-19T08:02:49.117Z,3.03
2018-07-19T08:05:18.536Z,3.60
2018-07-19T08:07:48.045Z,4.20
2018-07-19T08:10:17.464Z,4.70
2018-07-19T08:12:46.821Z,4.40
2018-07-19T08:15:16.756Z,4.10
2018-07-19T08:17:46.137Z,3.50
2018-07-19T08:20:15.745Z,4.10
2018-07-19T08:22:45.233Z,4.20
2018-07-19T08:25:14.960Z,4.13
2018-07-19T08:27:44.598Z,4.00
2018-07-19T08:30:14.429Z,3.30
2018-07-19T08:32:44.078Z,3.60
2018-07-19T08:35:13.708Z,4.00
2018-07-19T08:37:44.110Z,3.70
2018-07-19T08:40:14.384Z,4.10
2018-07-19T08:42:44.904Z,3.80
2018-07-19T08:45:14.818Z,3.70
2018-07-19T08:47:44.791Z,3.20
2018-07-19T08:50:14.807Z,3.00
2018-07-19T08:52:45.234Z,4.00
2018-07-19T08:55:15.141Z,3.70
2018-07-19T08:57:44.883Z,3.90
2018-07-19T09:00:16.647Z,2.83
2018-07-19T09:02:46.537Z,3.23
2018-07-19T09:05:16.297Z,3.30
2018-07-19T09:07:45.922Z,3.40
2018-07-19T09:10:14.411Z,3.50
2018-07-19T09:12:44.164Z,3.13
2018-07-19T09:15:14.461Z,2.87
2018-07-19T09:17:44.091Z,3.07
2018-07-19T09:20:13.889Z,3.13
2018-07-19T09:22:45.015Z,3.30
2018-07-19T09:25:14.663Z,4.20
2018-07-19T09:27:44.365Z,3.47
2018-07-19T09:30:14.529Z,3.37
2018-07-19T09:32:44.437Z,3.60
2018-07-19T09:35:14.061Z,3.53
2018-07-19T09:37:44.772Z,3.70
2018-07-19T09:40:14.669Z,3.80
2018-07-19T09:42:44.279Z,3.40
2018-07-19T09:45:14.093Z,3.57
2018-07-19T09:47:43.927Z,3.80
2018-07-19T09:50:13.903Z,2.87
2018-07-19T09:52:44.056Z,3.50
2018-07-19T09:55:14.281Z,3.93
2018-07-19T09:57:44.504Z,3.27
2018-07-19T10:00:19.968Z,4.10
2018-07-19T10:02:49.192Z,3.70
2018-07-19T10:05:18.708Z,3.10
2018-07-19T10:07:48.290Z,3.63
2018-07-19T10:10:17.753Z,3.10
2018-07-19T10:12:47.249Z,2.83
2018-07-19T10:15:17.122Z,3.50
2018-07-19T10:17:46.709Z,2.90
2018-07-19T10:20:16.338Z,3.43
2018-07-19T10:22:45.886Z,2.97
2018-07-19T10:25:15.724Z,3.70
2018-07-19T10:27:45.323Z,3.27
2018-07-19T10:30:15.335Z,3.07
2018-07-19T10:32:45.034Z,3.20
2018-07-19T10:35:16.136Z,3.23
2018-07-19T10:37:46.209Z,2.90
2018-07-19T10:40:20.514Z,3.00
2018-07-19T10:42:49.914Z,3.23
2018-07-19T10:45:19.375Z,2.60
2018-07-19T10:47:49.362Z,3.20
2018-07-19T10:50:20.228Z,3.07
2018-07-19T10:52:49.668Z,3.07
2018-07-19T10:55:19.183Z,2.53
2018-07-19T10:57:49.625Z,2.50
2018-07-19T11:00:19.042Z,3.27
2018-07-19T11:02:48.725Z,2.70
2018-07-19T11:05:18.609Z,2.70
2018-07-19T11:07:48.044Z,2.80
2018-07-19T11:10:18.420Z,2.87
2018-07-19T11:12:48.170Z,2.90
2018-07-19T11:15:17.867Z,3.10
2018-07-19T11:17:47.862Z,2.53
2018-07-19T11:20:17.826Z,3.23
2018-07-19T11:22:47.943Z,2.87
2018-07-19T11:25:17.917Z,2.53
2018-07-19T11:27:48.055Z,2.57
2018-07-19T11:30:17.920Z,2.50
2018-07-19T11:32:48.334Z,2.90
2018-07-19T11:35:18.824Z,2.70
2018-07-19T11:37:49.297Z,2.97
2018-07-19T11:40:18.852Z,2.63
2018-07-19T11:42:48.229Z,2.70
2018-07-19T11:45:18.331Z,2.07
2018-07-19T11:47:47.873Z,2.40
2018-07-19T11:50:17.505Z,2.13
2018-07-19T11:52:46.940Z,2.53
2018-07-19T11:55:16.420Z,2.33
2018-07-19T11:57:46.265Z,2.57
2018-07-19T12:00:16.229Z,2.23
2018-07-19T12:02:45.989Z,2.50
2018-07-19T12:05:15.542Z,3.30
2018-07-19T12:07:45.001Z,3.40
2018-07-19T12:10:15.100Z,3.50
2018-07-19T12:12:44.984Z,2.73
2018-07-19T12:15:14.780Z,3.00
2018-07-19T12:17:45.824Z,2.53
2018-07-19T12:20:15.991Z,2.40
2018-07-19T12:22:46.343Z,2.93
2018-07-19T12:25:16.559Z,2.73
2018-07-19T12:27:46.483Z,2.83
2018-07-19T12:30:16.339Z,2.60
2018-07-19T12:32:46.408Z,3.03
2018-07-19T12:35:16.293Z,2.40
2018-07-19T12:37:46.325Z,3.20
2018-07-19T12:40:17.511Z,2.60
2018-07-19T12:42:47.213Z,2.67
2018-07-19T12:45:16.576Z,2.23
2018-07-19T12:47:46.517Z,2.40
2018-07-19T12:50:17.060Z,2.90
2018-07-19T12:52:47.199Z,2.43
2018-07-19T12:55:16.734Z,2.53
2018-07-19T12:57:46.083Z,3.27
2018-07-19T13:00:15.761Z,2.50
2018-07-19T13:02:45.331Z,2.40
2018-07-19T13:05:15.743Z,3.13
2018-07-19T13:07:45.621Z,2.50
2018-07-19T13:10:16.707Z,2.50
2018-07-19T13:12:47.992Z,2.87
2018-07-19T13:15:17.471Z,2.67
2018-07-19T13:17:46.993Z,2.50
2018-07-19T13:20:17.203Z,2.00
2018-07-19T13:22:48.539Z,2.83
2018-07-19T13:25:19.690Z,2.33
2018-07-19T13:27:49.213Z,2.50
2018-07-19T13:30:19.175Z,3.17
2018-07-19T13:32:49.085Z,2.43
2018-07-19T13:35:18.631Z,2.23
2018-07-19T13:37:48.170Z,2.63
2018-07-19T13:40:19.182Z,3.13
2018-07-19T13:42:49.016Z,2.63
2018-07-19T13:45:18.796Z,2.47
2018-07-19T13:47:49.145Z,2.23
2018-07-19T13:50:19.230Z,2.27
2018-07-19T13:52:59.675Z,1.97
2018-07-19T13:55:29.641Z,2.83
2018-07-19T13:58:03.658Z,2.83
2018-07-19T14:00:33.771Z,2.53
2018-07-19T14:03:04.524Z,2.10
2018-07-19T14:05:37.020Z,2.57
2018-07-19T14:08:11.746Z,1.83
2018-07-19T14:10:46.355Z,2.00
2018-07-19T14:13:17.363Z,2.20
2018-07-19T14:15:48.341Z,2.60
2018-07-19T14:18:18.151Z,2.40
2018-07-19T14:20:48.456Z,2.53
2018-07-19T14:23:19.810Z,3.33
2018-07-19T14:25:49.212Z,1.90
2018-07-19T14:28:19.063Z,2.07
2018-07-19T14:30:55.063Z,2.67
2018-07-19T14:33:25.864Z,3.07
2018-07-19T14:35:55.302Z,3.20
2018-07-19T14:38:29.381Z,2.30
2018-07-19T14:40:58.845Z,1.97
2018-07-19T14:43:29.060Z,3.90
2018-07-19T14:46:00.265Z,2.10
2018-07-19T14:48:29.963Z,2.40
2018-07-19T14:51:00.755Z,3.17
2018-07-19T14:53:30.955Z,2.40
2018-07-19T14:56:00.650Z,2.13
2018-07-19T14:58:30.315Z,2.43
2018-07-19T15:01:00.151Z,2.47
2018-07-19T15:03:29.817Z,2.97
2018-07-19T15:05:59.397Z,2.73
2018-07-19T15:08:29.241Z,3.13
2018-07-19T15:11:03.565Z,2.40
2018-07-19T15:13:34.287Z,2.23
2018-07-19T15:16:06.256Z,2.77
2018-07-19T15:18:37.126Z,2.47
2018-07-19T15:21:07.730Z,2.33
2018-07-19T15:23:38.945Z,2.80
2018-07-19T15:26:09.504Z,2.63
2018-07-19T15:28:39.774Z,2.50
2018-07-19T15:31:12.272Z,2.13
2018-07-19T15:33:47.647Z,2.57
2018-07-19T15:36:17.630Z,2.47
2018-07-19T15:38:47.440Z,2.33
2018-07-19T15:41:17.966Z,2.80
2018-07-19T15:43:48.674Z,2.60
2018-07-19T15:46:18.148Z,2.50
2018-07-19T15:48:48.149Z,2.40
2018-07-19T15:51:26.192Z,2.73
2018-07-19T15:53:59.041Z,2.23
2018-07-19T15:56:42.681Z,2.53
2018-07-19T15:59:16.844Z,2.50
2018-07-19T16:01:48.562Z,2.30
2018-07-19T16:04:18.920Z,2.57
2018-07-19T16:06:48.640Z,3.97
2018-07-19T16:09:23.017Z,2.10
2018-07-19T16:11:52.534Z,2.40
2018-07-19T16:14:21.855Z,2.50
2018-07-19T16:16:52.320Z,1.90
2018-07-19T16:19:23.019Z,2.30
2018-07-19T16:21:53.405Z,2.07
2018-07-19T16:24:22.695Z,2.40
2018-07-19T16:26:52.143Z,2.67
2018-07-19T16:29:22.790Z,2.20
2018-07-19T16:31:52.266Z,2.23
2018-07-19T16:34:21.539Z,2.20
2018-07-19T16:36:50.944Z,2.60
2018-07-19T16:39:20.343Z,2.37
2018-07-19T16:41:49.646Z,2.10
2018-07-19T16:44:19.225Z,2.10
2018-07-19T16:46:48.586Z,1.70
2018-07-19T16:49:17.928Z,2.13
2018-07-19T16:51:47.572Z,2.27
2018-07-19T16:54:19.068Z,2.20
2018-07-19T16:56:48.953Z,2.07
2018-07-19T16:59:18.932Z,2.03
2018-07-19T17:01:48.871Z,2.07
2018-07-19T17:04:18.625Z,1.90
2018-07-19T17:06:48.375Z,2.40
2018-07-19T17:09:18.565Z,2.27
2018-07-19T17:11:48.500Z,2.47
2018-07-19T17:14:18.868Z,2.40
2018-07-19T17:16:49.433Z,1.90
2018-07-19T17:19:19.833Z,1.90
2018-07-19T17:21:49.958Z,2.10
2018-07-19T17:24:20.163Z,2.00
2018-07-19T17:26:50.151Z,2.23
2018-07-19T17:29:20.265Z,2.07
2018-07-19T17:31:49.730Z,1.93
2018-07-19T17:34:19.812Z,2.40
2018-07-19T17:36:50.900Z,1.73
2018-07-19T17:39:20.899Z,2.50
2018-07-19T17:41:50.614Z,2.17
2018-07-19T17:44:20.297Z,2.07
2018-07-19T17:46:50.478Z,2.03
2018-07-19T17:49:20.195Z,1.73
2018-07-19T17:51:49.810Z,1.80
2018-07-19T17:54:19.364Z,2.17
2018-07-19T17:56:49.989Z,1.70
2018-07-19T17:59:19.506Z,2.20
2018-07-19T18:01:57.369Z,1.57
2018-07-19T18:04:27.372Z,1.70
2018-07-19T18:06:56.858Z,1.90
2018-07-19T18:09:27.682Z,1.50
2018-07-19T18:12:00.058Z,1.67
2018-07-19T18:14:31.712Z,1.90
2018-07-19T18:17:02.680Z,1.63
2018-07-19T18:19:33.469Z,1.77
2018-07-19T18:22:07.975Z,1.63
2018-07-19T18:24:41.363Z,1.80
2018-07-19T18:27:11.682Z,1.70
2018-07-19T18:29:41.546Z,1.60
2018-07-19T18:32:12.273Z,1.70
2018-07-19T18:34:43.182Z,1.87
2018-07-19T18:37:13.730Z,1.40
2018-07-19T18:39:45.882Z,1.90
2018-07-19T18:42:15.982Z,1.53
2018-07-19T18:44:45.547Z,1.20
2018-07-19T18:47:17.023Z,1.70
2018-07-19T18:49:48.661Z,1.27
2018-07-19T18:52:18.748Z,1.60
2018-07-19T18:54:48.327Z,1.23
2018-07-19T18:57:20.997Z,1.70
2018-07-19T18:59:50.513Z,1.50
2018-07-19T19:02:20.079Z,1.30
2018-07-19T19:04:49.754Z,1.43
2018-07-19T19:07:19.694Z,1.40
2018-07-19T19:09:49.332Z,1.50
2018-07-19T19:12:18.969Z,1.83
2018-07-19T19:14:48.727Z,2.00
2018-07-19T19:17:18.805Z,1.40
2018-07-19T19:19:49.093Z,1.63
2018-07-19T19:22:20.255Z,1.90
2018-07-19T19:24:50.250Z,1.30
2018-07-19T19:27:20.263Z,2.53
2018-07-19T19:29:53.671Z,1.20
2018-07-19T19:32:26.565Z,1.30
2018-07-19T19:34:56.183Z,2.73
2018-07-19T19:37:25.540Z,1.43
2018-07-19T19:39:54.878Z,1.10
2018-07-19T19:42:24.213Z,2.03
2018-07-19T19:44:54.191Z,1.23
2018-07-19T19:47:26.141Z,1.87
2018-07-19T19:49:55.721Z,1.23
2018-07-19T19:52:25.137Z,1.47
2018-07-19T19:54:54.661Z,1.40
2018-07-19T19:57:24.602Z,1.13
2018-07-19T19:59:54.273Z,1.93
2018-07-19T20:02:26.326Z,1.33
2018-07-19T20:04:55.908Z,1.30
2018-07-19T20:07:27.543Z,1.63
2018-07-19T20:09:56.913Z,1.43
2018-07-19T20:12:26.298Z,1.53
2018-07-19T20:14:59.121Z,2.00
2018-07-19T20:17:28.791Z,1.20
2018-07-19T20:19:58.352Z,1.33
2018-07-19T20:22:31.776Z,1.30
2018-07-19T20:25:01.618Z,1.53
2018-07-19T20:27:31.211Z,1.27
2018-07-19T20:30:01.226Z,1.20
2018-07-19T20:32:30.809Z,1.47
2018-07-19T20:35:00.398Z,1.40
2018-07-19T20:37:30.051Z,1.40
2018-07-19T20:39:59.924Z,1.27
2018-07-19T20:42:33.650Z,1.20
2018-07-19T20:45:04.766Z,1.27
2018-07-19T20:47:35.745Z,1.63
2018-07-19T20:50:05.970Z,1.20
2018-07-19T20:52:37.519Z,1.37
2018-07-19T20:55:11.073Z,1.47
2018-07-19T20:57:40.818Z,1.20
2018-07-19T21:00:11.009Z,1.63
2018-07-19T21:02:41.879Z,1.37
2018-07-19T21:05:13.211Z,1.37
2018-07-19T21:07:43.292Z,2.23
2018-07-19T21:10:13.803Z,2.57
2018-07-19T21:12:43.891Z,2.63
2018-07-19T21:15:19.636Z,2.60
2018-07-19T21:17:51.925Z,2.10
2018-07-19T21:20:21.627Z,2.23
2018-07-19T21:22:52.901Z,1.77
2018-07-19T21:25:27.011Z,1.40
2018-07-19T21:27:56.569Z,1.90
2018-07-19T21:30:26.138Z,1.50
2018-07-19T21:32:56.119Z,1.90
2018-07-19T21:35:25.587Z,1.50
2018-07-19T21:37:55.276Z,1.90
2018-07-19T21:40:24.871Z,1.93
2018-07-19T21:42:54.508Z,1.83
2018-07-19T21:45:24.146Z,2.00
2018-07-19T21:47:54.001Z,2.63
2018-07-19T21:50:23.667Z,2.23
2018-07-19T21:52:53.216Z,2.27
2018-07-19T21:55:22.842Z,1.87
2018-07-19T21:57:52.143Z,2.20
2018-07-19T22:00:21.701Z,2.57
2018-07-19T22:02:51.414Z,3.03
2018-07-19T22:05:20.896Z,2.10
2018-07-19T22:07:50.216Z,1.70
2018-07-19T22:10:19.606Z,1.20
2018-07-19T22:12:49.373Z,1.80
2018-07-19T22:15:20.046Z,1.73
2018-07-19T22:17:49.537Z,1.63
2018-07-19T22:20:18.967Z,2.00
2018-07-19T22:22:48.181Z,1.77
2018-07-19T22:25:18.227Z,1.57
2018-07-19T22:27:48.039Z,1.67
2018-07-19T22:30:18.062Z,1.57
2018-07-19T22:32:47.900Z,1.30
2018-07-19T22:35:17.203Z,1.90
2018-07-19T22:37:46.640Z,1.83
2018-07-19T22:40:16.362Z,1.60
2018-07-19T22:42:46.629Z,1.60
2018-07-19T22:45:16.225Z,1.70
2018-07-19T22:47:47.213Z,1.63
2018-07-19T22:50:17.286Z,1.40
2018-07-19T22:52:47.714Z,1.90
2018-07-19T22:55:17.813Z,2.40
2018-07-19T22:57:47.476Z,2.13
2018-07-19T23:00:17.302Z,2.23
2018-07-19T23:02:47.254Z,2.17
2018-07-19T23:05:17.072Z,2.10
2018-07-19T23:07:47.442Z,1.90
2018-07-19T23:10:17.292Z,3.00
2018-07-19T23:12:47.621Z,2.90
2018-07-19T23:15:17.680Z,2.10
2018-07-19T23:17:47.243Z,2.20
2018-07-19T23:20:16.816Z,2.60
2018-07-19T23:22:51.900Z,2.30
2018-07-19T23:25:21.565Z,2.70
2018-07-19T23:27:51.116Z,2.60
2018-07-19T23:30:20.940Z,2.13
2018-07-19T23:32:50.559Z,2.20
2018-07-19T23:35:20.885Z,2.50
2018-07-19T23:37:52.142Z,2.20
2018-07-19T23:40:24.905Z,2.50
2018-07-19T23:43:00.037Z,2.53
2018-07-19T23:45:34.786Z,5.60
2018-07-19T23:48:05.855Z,3.27
2018-07-19T23:50:35.727Z,2.40
2018-07-19T23:53:05.494Z,2.10
2018-07-19T23:55:35.830Z,2.37
2018-07-19T23:58:06.162Z,2.50
